Airfield :
LOGIN :

Register | Disclaimer

   EN    FR    IT 

 










Legend :    VFR   Marginal VFR   IFR   Intensive IFR   Very Intensive IFR
Visi :
Ceiling :
>= 8 km
>= 3000ft
5 to 8 km
1000 to 3000 ft
1500m to 5 km
500 to 1000 ft
800 to 1500m
200 to 500 ft
< 800m
< 200 ft
Symbols :   Thunderstorms  Fog  Heavy snow  Heavy precipitations  Wind > 20 kt
SIGMETs :     Misc.  Thunderstorms  Icing  Turbulence  Mountain Waves  Volcanic Ashes







- Airport Elevation : 147 ft
- IATA code : DUS


EDDL - Düsseldorf Int.

CURRENT METAR :
  • 221150Z 02003KT 340V090 9999 FEW046TCU SCT110 BKN280 24/13 Q1012 TEMPO 4000 TSRA

EXPIRED METARs :
  • 221120Z 34004KT 240V040 9999 FEW046 SCT120 BKN280 25/12 Q1012 NOSIG
  • 221050Z 34004KT 270V040 9999 FEW046 BKN300 25/13 Q1012 NOSIG
  • 221020Z 28004KT 200V350 9999 FEW045 BKN300 24/13 Q1012 NOSIG
  • 220950Z VRB04KT CAVOK 24/12 Q1012 NOSIG
  • 220920Z 30005KT 260V330 CAVOK 22/12 Q1012 NOSIG

TAF TAF EDDL
Valid from the 22 at 12:00 until the 23 at 18:00 UTC


221100Z 2212/2318 VRB03KT CAVOK
TEMPO 2213/2220 04015G25KT 4000 TSRA BKN040CB
BECMG 2309/2312 05010KT
PROB30
TEMPO 2315/2318 05015G25KT
No reported NOTAMs for that airfield.



MET'MAP, your aeronautical weather chart ! - Copyright ORBIFLY December 2007 - Disclaimer

ORBIFLY MET'MAP TEAM :

Programming & Development : Alexandra Zaïnal
Concept & Development : Baudouin d'Aumeries
Co-Development & Prog : Marc-Olivier Méhu
Technical & hardware support : Manuel Goepfert

Contact : metmap@orbifly.com




SOURCES & CREDITS :

   NOAA